sensor_id;sensor_type;location;lat;lon;timestamp;pressure;altitude;pressure_sealevel;temperature;humidity
14383;BME280;7275;50.328;8.720;2023-02-23T00:01:19;99348.69;;;15.67;44.90
14383;BME280;7275;50.328;8.720;2023-02-23T00:03:48;99345.25;;;15.65;44.89
14383;BME280;7275;50.328;8.720;2023-02-23T00:06:18;99351.75;;;15.61;44.88
14383;BME280;7275;50.328;8.720;2023-02-23T00:08:46;99344.31;;;15.52;45.05
14383;BME280;7275;50.328;8.720;2023-02-23T00:11:15;99335.88;;;15.46;45.12
14383;BME280;7275;50.328;8.720;2023-02-23T00:13:44;99339.59;;;15.43;45.26
14383;BME280;7275;50.328;8.720;2023-02-23T00:16:14;99338.88;;;15.40;45.20
14383;BME280;7275;50.328;8.720;2023-02-23T00:18:44;99339.72;;;15.40;45.34
14383;BME280;7275;50.328;8.720;2023-02-23T00:21:14;99345.81;;;15.42;45.44
14383;BME280;7275;50.328;8.720;2023-02-23T00:23:49;99333.28;;;15.44;45.42
14383;BME280;7275;50.328;8.720;2023-02-23T00:26:17;99340.25;;;15.47;45.37
14383;BME280;7275;50.328;8.720;2023-02-23T00:28:47;99341.88;;;15.49;45.49
14383;BME280;7275;50.328;8.720;2023-02-23T00:31:16;99347.38;;;15.46;45.42
14383;BME280;7275;50.328;8.720;2023-02-23T00:33:44;99340.34;;;15.45;45.34
14383;BME280;7275;50.328;8.720;2023-02-23T00:36:13;99339.31;;;15.48;45.52
14383;BME280;7275;50.328;8.720;2023-02-23T00:38:41;99333.75;;;15.51;45.65
14383;BME280;7275;50.328;8.720;2023-02-23T00:41:14;99327.50;;;15.52;45.59
14383;BME280;7275;50.328;8.720;2023-02-23T00:43:45;99328.44;;;15.51;45.35
14383;BME280;7275;50.328;8.720;2023-02-23T00:46:14;99326.75;;;15.50;45.50
14383;BME280;7275;50.328;8.720;2023-02-23T00:48:43;99334.72;;;15.50;45.49
14383;BME280;7275;50.328;8.720;2023-02-23T00:51:11;99338.44;;;15.47;45.52
14383;BME280;7275;50.328;8.720;2023-02-23T00:53:39;99340.25;;;15.47;45.62
14383;BME280;7275;50.328;8.720;2023-02-23T00:56:08;99337.47;;;15.48;45.60
14383;BME280;7275;50.328;8.720;2023-02-23T00:58:37;99337.41;;;15.50;45.63
14383;BME280;7275;50.328;8.720;2023-02-23T01:01:06;99332.72;;;15.53;45.61
14383;BME280;7275;50.328;8.720;2023-02-23T01:03:33;99330.81;;;15.55;45.54
14383;BME280;7275;50.328;8.720;2023-02-23T01:06:03;99339.66;;;15.56;45.55
14383;BME280;7275;50.328;8.720;2023-02-23T01:08:32;99343.16;;;15.56;45.71
14383;BME280;7275;50.328;8.720;2023-02-23T01:11:04;99342.06;;;15.60;45.59
14383;BME280;7275;50.328;8.720;2023-02-23T01:13:32;99348.97;;;15.63;45.67
14383;BME280;7275;50.328;8.720;2023-02-23T01:16:03;99345.38;;;15.64;45.55
14383;BME280;7275;50.328;8.720;2023-02-23T01:18:31;99344.41;;;15.65;45.58
14383;BME280;7275;50.328;8.720;2023-02-23T01:21:00;99345.16;;;15.67;45.57
14383;BME280;7275;50.328;8.720;2023-02-23T01:23:27;99349.44;;;15.69;45.32
14383;BME280;7275;50.328;8.720;2023-02-23T01:25:55;99346.78;;;15.69;45.34
14383;BME280;7275;50.328;8.720;2023-02-23T01:28:23;99339.53;;;15.71;45.38
14383;BME280;7275;50.328;8.720;2023-02-23T01:30:50;99345.84;;;15.70;45.57
14383;BME280;7275;50.328;8.720;2023-02-23T01:33:19;99344.97;;;15.70;45.68
14383;BME280;7275;50.328;8.720;2023-02-23T01:35:56;99344.97;;;15.70;45.74
14383;BME280;7275;50.328;8.720;2023-02-23T01:38:23;99347.53;;;15.71;45.66
14383;BME280;7275;50.328;8.720;2023-02-23T01:40:51;99341.34;;;15.71;45.65
14383;BME280;7275;50.328;8.720;2023-02-23T01:43:20;99340.59;;;15.69;45.71
14383;BME280;7275;50.328;8.720;2023-02-23T01:45:53;99340.50;;;15.70;45.61
14383;BME280;7275;50.328;8.720;2023-02-23T01:48:25;99335.94;;;15.72;45.60
14383;BME280;7275;50.328;8.720;2023-02-23T01:50:57;99336.69;;;15.74;45.68
14383;BME280;7275;50.328;8.720;2023-02-23T01:53:29;99334.03;;;15.74;45.74
14383;BME280;7275;50.328;8.720;2023-02-23T01:56:04;99339.34;;;15.74;45.76
14383;BME280;7275;50.328;8.720;2023-02-23T01:58:37;99334.09;;;15.73;45.91
14383;BME280;7275;50.328;8.720;2023-02-23T02:01:05;99334.97;;;15.73;45.88
14383;BME280;7275;50.328;8.720;2023-02-23T02:03:37;99340.28;;;15.73;45.78
14383;BME280;7275;50.328;8.720;2023-02-23T02:06:09;99338.38;;;15.75;45.81
14383;BME280;7275;50.328;8.720;2023-02-23T02:08:42;99334.78;;;15.76;45.89
14383;BME280;7275;50.328;8.720;2023-02-23T02:11:13;99329.44;;;15.76;45.82
14383;BME280;7275;50.328;8.720;2023-02-23T02:13:58;99336.41;;;15.79;45.79
14383;BME280;7275;50.328;8.720;2023-02-23T02:16:48;99335.44;;;15.80;45.78
14383;BME280;7275;50.328;8.720;2023-02-23T02:19:58;99329.16;;;15.81;45.83
14383;BME280;7275;50.328;8.720;2023-02-23T02:25:55;99328.31;;;15.80;45.74
14383;BME280;7275;50.328;8.720;2023-02-23T02:28:42;99325.41;;;15.83;45.76
14383;BME280;7275;50.328;8.720;2023-02-23T02:31:58;99321.91;;;15.83;45.76
14383;BME280;7275;50.328;8.720;2023-02-23T02:35:18;99320.19;;;15.82;45.81
14383;BME280;7275;50.328;8.720;2023-02-23T02:38:22;99323.91;;;15.79;45.82
14383;BME280;7275;50.328;8.720;2023-02-23T02:40:58;99317.94;;;15.76;45.94
14383;BME280;7275;50.328;8.720;2023-02-23T02:43:35;99309.94;;;15.76;46.08
14383;BME280;7275;50.328;8.720;2023-02-23T02:46:11;99312.72;;;15.74;46.02
14383;BME280;7275;50.328;8.720;2023-02-23T02:48:48;99314.63;;;15.72;46.24
14383;BME280;7275;50.328;8.720;2023-02-23T02:51:25;99320.41;;;15.65;46.09
14383;BME280;7275;50.328;8.720;2023-02-23T02:54:01;99315.69;;;15.56;46.22
14383;BME280;7275;50.328;8.720;2023-02-23T02:56:33;99309.03;;;15.49;46.58
14383;BME280;7275;50.328;8.720;2023-02-23T02:59:07;99318.75;;;15.50;46.52
14383;BME280;7275;50.328;8.720;2023-02-23T03:01:54;99310.75;;;15.50;46.52
14383;BME280;7275;50.328;8.720;2023-02-23T03:04:40;99311.59;;;15.50;46.64
14383;BME280;7275;50.328;8.720;2023-02-23T03:07:29;99308.09;;;15.50;46.59
14383;BME280;7275;50.328;8.720;2023-02-23T03:10:23;99302.78;;;15.50;46.70
14383;BME280;7275;50.328;8.720;2023-02-23T03:13:17;99305.44;;;15.50;46.73
14383;BME280;7275;50.328;8.720;2023-02-23T03:16:26;99302.78;;;15.50;46.71
14383;BME280;7275;50.328;8.720;2023-02-23T03:19:17;99306.38;;;15.49;46.78
14383;BME280;7275;50.328;8.720;2023-02-23T03:22:12;99304.56;;;15.49;46.81
14383;BME280;7275;50.328;8.720;2023-02-23T03:25:05;99303.69;;;15.49;46.76
14383;BME280;7275;50.328;8.720;2023-02-23T03:28:01;99309.91;;;15.49;46.76
14383;BME280;7275;50.328;8.720;2023-02-23T03:30:53;99316.38;;;15.45;46.85
14383;BME280;7275;50.328;8.720;2023-02-23T03:33:48;99314.75;;;15.43;46.77
14383;BME280;7275;50.328;8.720;2023-02-23T03:36:39;99315.88;;;15.39;46.82
14383;BME280;7275;50.328;8.720;2023-02-23T03:39:33;99312.22;;;15.40;47.11
14383;BME280;7275;50.328;8.720;2023-02-23T03:42:23;99312.22;;;15.40;47.04
14383;BME280;7275;50.328;8.720;2023-02-23T03:45:15;99321.09;;;15.40;47.21
14383;BME280;7275;50.328;8.720;2023-02-23T03:48:04;99317.50;;;15.41;47.13
14383;BME280;7275;50.328;8.720;2023-02-23T03:50:52;99309.41;;;15.43;47.12
14383;BME280;7275;50.328;8.720;2023-02-23T03:53:41;99323.50;;;15.45;47.17
14383;BME280;7275;50.328;8.720;2023-02-23T03:56:30;99319.03;;;15.45;47.20
14383;BME280;7275;50.328;8.720;2023-02-23T03:59:19;99313.72;;;15.45;47.12
14383;BME280;7275;50.328;8.720;2023-02-23T04:02:10;99315.50;;;15.45;47.13
14383;BME280;7275;50.328;8.720;2023-02-23T04:05:00;99315.75;;;15.40;47.17
14383;BME280;7275;50.328;8.720;2023-02-23T04:07:48;99317.94;;;15.34;47.30
14383;BME280;7275;50.328;8.720;2023-02-23T04:10:40;99318.34;;;15.28;47.43
14383;BME280;7275;50.328;8.720;2023-02-23T04:13:27;99313.22;;;15.25;47.53
14383;BME280;7275;50.328;8.720;2023-02-23T04:15:58;99323.88;;;15.25;47.49
14383;BME280;7275;50.328;8.720;2023-02-23T04:18:28;99325.56;;;15.26;47.71
14383;BME280;7275;50.328;8.720;2023-02-23T04:20:57;99322.91;;;15.26;47.59
14383;BME280;7275;50.328;8.720;2023-02-23T04:23:26;99328.81;;;15.31;47.56
14383;BME280;7275;50.328;8.720;2023-02-23T04:25:54;99331.25;;;15.34;47.62
14383;BME280;7275;50.328;8.720;2023-02-23T04:28:23;99333.75;;;15.37;47.43
14383;BME280;7275;50.328;8.720;2023-02-23T04:30:51;99330.03;;;15.39;47.44
14383;BME280;7275;50.328;8.720;2023-02-23T04:33:20;99334.28;;;15.42;47.70
14383;BME280;7275;50.328;8.720;2023-02-23T04:35:51;99335.03;;;15.45;47.50
14383;BME280;7275;50.328;8.720;2023-02-23T04:38:18;99338.34;;;15.49;47.56
14383;BME280;7275;50.328;8.720;2023-02-23T04:40:46;99330.25;;;15.50;47.67
14383;BME280;7275;50.328;8.720;2023-02-23T04:43:14;99331.84;;;15.53;47.61
14383;BME280;7275;50.328;8.720;2023-02-23T04:45:41;99336.31;;;15.52;47.60
14383;BME280;7275;50.328;8.720;2023-02-23T04:48:10;99330.25;;;15.50;47.66
14383;BME280;7275;50.328;8.720;2023-02-23T04:50:37;99325.97;;;15.48;47.61
14383;BME280;7275;50.328;8.720;2023-02-23T04:53:07;99326.16;;;15.45;47.45
14383;BME280;7275;50.328;8.720;2023-02-23T04:55:34;99336.13;;;15.41;47.57
14383;BME280;7275;50.328;8.720;2023-02-23T04:58:02;99325.56;;;15.40;47.87
14383;BME280;7275;50.328;8.720;2023-02-23T05:00:30;99327.28;;;15.41;47.86
14383;BME280;7275;50.328;8.720;2023-02-23T05:02:59;99332.50;;;15.42;48.03
14383;BME280;7275;50.328;8.720;2023-02-23T05:05:27;99337.56;;;15.47;47.89
14383;BME280;7275;50.328;8.720;2023-02-23T05:07:54;99331.31;;;15.48;47.98
14383;BME280;7275;50.328;8.720;2023-02-23T05:10:23;99332.91;;;15.50;47.92
14383;BME280;7275;50.328;8.720;2023-02-23T05:12:51;99332.72;;;15.53;47.88
14383;BME280;7275;50.328;8.720;2023-02-23T05:15:18;99338.81;;;15.55;47.97
14383;BME280;7275;50.328;8.720;2023-02-23T05:17:46;99339.56;;;15.57;47.89
14383;BME280;7275;50.328;8.720;2023-02-23T05:20:14;99335.00;;;15.59;47.86
14383;BME280;7275;50.328;8.720;2023-02-23T05:22:41;99335.84;;;15.60;47.78
14383;BME280;7275;50.328;8.720;2023-02-23T05:25:09;99335.00;;;15.59;47.83
14383;BME280;7275;50.328;8.720;2023-02-23T05:27:39;99335.84;;;15.60;47.84
14383;BME280;7275;50.328;8.720;2023-02-23T05:30:07;99337.56;;;15.61;47.92
14383;BME280;7275;50.328;8.720;2023-02-23T05:32:35;99340.16;;;15.62;47.85
14383;BME280;7275;50.328;8.720;2023-02-23T05:35:04;99333.94;;;15.62;48.00
14383;BME280;7275;50.328;8.720;2023-02-23T05:37:31;99336.50;;;15.63;47.97
14383;BME280;7275;50.328;8.720;2023-02-23T05:40:00;99334.81;;;15.62;47.91
14383;BME280;7275;50.328;8.720;2023-02-23T05:42:27;99334.88;;;15.61;47.91
14383;BME280;7275;50.328;8.720;2023-02-23T05:44:56;99340.97;;;15.63;47.84
14383;BME280;7275;50.328;8.720;2023-02-23T05:47:24;99335.66;;;15.63;47.92
14383;BME280;7275;50.328;8.720;2023-02-23T05:49:51;99344.50;;;15.63;47.85
14383;BME280;7275;50.328;8.720;2023-02-23T05:52:19;99348.03;;;15.64;48.04
14383;BME280;7275;50.328;8.720;2023-02-23T05:54:47;99340.03;;;15.64;48.05
14383;BME280;7275;50.328;8.720;2023-02-23T05:57:14;99344.41;;;15.65;47.77
14383;BME280;7275;50.328;8.720;2023-02-23T05:59:42;99344.31;;;15.66;47.88
14383;BME280;7275;50.328;8.720;2023-02-23T06:02:11;99343.47;;;15.66;48.09
14383;BME280;7275;50.328;8.720;2023-02-23T06:04:39;99343.34;;;15.67;48.20
14383;BME280;7275;50.328;8.720;2023-02-23T06:07:07;99346.88;;;15.68;48.18
14383;BME280;7275;50.328;8.720;2023-02-23T06:09:34;99352.09;;;15.69;48.21
14383;BME280;7275;50.328;8.720;2023-02-23T06:12:02;99353.91;;;15.69;48.18
14383;BME280;7275;50.328;8.720;2023-02-23T06:14:30;99347.63;;;15.70;48.14
14383;BME280;7275;50.328;8.720;2023-02-23T06:16:58;99348.50;;;15.70;48.22
14383;BME280;7275;50.328;8.720;2023-02-23T06:19:27;99348.41;;;15.72;48.15
14383;BME280;7275;50.328;8.720;2023-02-23T06:21:57;99353.06;;;15.68;48.25
14383;BME280;7275;50.328;8.720;2023-02-23T06:24:25;99350.69;;;15.64;48.34
14383;BME280;7275;50.328;8.720;2023-02-23T06:26:52;99350.97;;;15.59;48.28
14383;BME280;7275;50.328;8.720;2023-02-23T06:29:20;99353.94;;;15.55;48.45
14383;BME280;7275;50.328;8.720;2023-02-23T06:31:48;99353.38;;;15.50;48.50
14383;BME280;7275;50.328;8.720;2023-02-23T06:34:16;99349.19;;;15.46;48.65
14383;BME280;7275;50.328;8.720;2023-02-23T06:36:45;99358.13;;;15.45;48.86
14383;BME280;7275;50.328;8.720;2023-02-23T06:39:13;99363.34;;;15.46;48.71
14383;BME280;7275;50.328;8.720;2023-02-23T06:41:40;99360.63;;;15.48;48.77
14383;BME280;7275;50.328;8.720;2023-02-23T06:44:08;99364.22;;;15.47;48.73
14383;BME280;7275;50.328;8.720;2023-02-23T06:46:35;99364.09;;;15.48;48.91
14383;BME280;7275;50.328;8.720;2023-02-23T06:49:03;99360.41;;;15.51;48.86
14383;BME280;7275;50.328;8.720;2023-02-23T06:51:31;99367.25;;;15.55;48.88
14383;BME280;7275;50.328;8.720;2023-02-23T06:54:00;99374.97;;;15.59;48.94
14383;BME280;7275;50.328;8.720;2023-02-23T06:56:27;99380.88;;;15.64;48.86
14383;BME280;7275;50.328;8.720;2023-02-23T06:58:55;99368.19;;;15.68;48.98
14383;BME280;7275;50.328;8.720;2023-02-23T07:01:22;99374.19;;;15.71;48.79
14383;BME280;7275;50.328;8.720;2023-02-23T07:03:50;99381.88;;;15.76;48.83
14383;BME280;7275;50.328;8.720;2023-02-23T07:06:18;99376.38;;;15.79;48.95
14383;BME280;7275;50.328;8.720;2023-02-23T07:08:45;99377.97;;;15.81;48.92
14383;BME280;7275;50.328;8.720;2023-02-23T07:11:15;99378.72;;;15.83;48.67
14383;BME280;7275;50.328;8.720;2023-02-23T07:13:44;99382.06;;;15.87;48.80
14383;BME280;7275;50.328;8.720;2023-02-23T07:16:12;99384.75;;;15.87;48.82
14383;BME280;7275;50.328;8.720;2023-02-23T07:18:41;99389.22;;;15.86;48.86
14383;BME280;7275;50.328;8.720;2023-02-23T07:21:09;99387.41;;;15.87;48.90
14383;BME280;7275;50.328;8.720;2023-02-23T07:23:36;99392.81;;;15.85;49.09
14383;BME280;7275;50.328;8.720;2023-02-23T07:26:04;99392.16;;;15.82;49.15
14383;BME280;7275;50.328;8.720;2023-02-23T07:28:33;99387.88;;;15.79;49.26
14383;BME280;7275;50.328;8.720;2023-02-23T07:31:01;99394.94;;;15.80;49.22
14383;BME280;7275;50.328;8.720;2023-02-23T07:33:29;99397.59;;;15.80;49.18
14383;BME280;7275;50.328;8.720;2023-02-23T07:35:57;99390.47;;;15.81;49.32
14383;BME280;7275;50.328;8.720;2023-02-23T07:38:25;99393.97;;;15.81;49.52
14383;BME280;7275;50.328;8.720;2023-02-23T07:40:54;99390.47;;;15.81;49.45
14383;BME280;7275;50.328;8.720;2023-02-23T07:43:21;99400.25;;;15.80;49.42
14383;BME280;7275;50.328;8.720;2023-02-23T07:45:51;99394.94;;;15.80;49.51
14383;BME280;7275;50.328;8.720;2023-02-23T07:48:20;99394.34;;;15.75;49.50
14383;BME280;7275;50.328;8.720;2023-02-23T07:50:47;99402.44;;;15.74;49.76
14383;BME280;7275;50.328;8.720;2023-02-23T07:53:15;99406.16;;;15.71;49.72
14383;BME280;7275;50.328;8.720;2023-02-23T07:55:43;99403.72;;;15.68;49.97
14383;BME280;7275;50.328;8.720;2023-02-23T07:58:11;99402.94;;;15.66;50.08
14383;BME280;7275;50.328;8.720;2023-02-23T08:00:39;99394.84;;;15.68;50.19
14383;BME280;7275;50.328;8.720;2023-02-23T08:03:07;99408.81;;;15.71;50.32
14383;BME280;7275;50.328;8.720;2023-02-23T08:05:35;99407.59;;;15.77;50.38
14383;BME280;7275;50.328;8.720;2023-02-23T08:08:05;99410.72;;;15.83;50.20
14383;BME280;7275;50.328;8.720;2023-02-23T08:10:33;99407.59;;;15.91;50.20
14383;BME280;7275;50.328;8.720;2023-02-23T08:13:00;99414.31;;;15.96;50.37
14383;BME280;7275;50.328;8.720;2023-02-23T08:15:28;99406.03;;;16.01;50.21
14383;BME280;7275;50.328;8.720;2023-02-23T08:17:57;99414.69;;;16.05;50.46
14383;BME280;7275;50.328;8.720;2023-02-23T08:20:26;99421.53;;;16.09;50.41
14383;BME280;7275;50.328;8.720;2023-02-23T08:22:54;99417.81;;;16.11;50.55
14383;BME280;7275;50.328;8.720;2023-02-23T08:25:22;99415.72;;;16.16;50.43
14383;BME280;7275;50.328;8.720;2023-02-23T08:27:50;99425.13;;;16.22;50.53
14383;BME280;7275;50.328;8.720;2023-02-23T08:30:21;99424.84;;;16.26;50.42
14383;BME280;7275;50.328;8.720;2023-02-23T08:32:49;99422.94;;;16.28;50.45
14383;BME280;7275;50.328;8.720;2023-02-23T08:35:17;99413.88;;;16.31;50.41
14383;BME280;7275;50.328;8.720;2023-02-23T08:37:46;99417.19;;;16.34;50.56
14383;BME280;7275;50.328;8.720;2023-02-23T08:40:14;99420.50;;;16.38;50.48
14383;BME280;7275;50.328;8.720;2023-02-23T08:42:43;99419.44;;;16.40;50.34
14383;BME280;7275;50.328;8.720;2023-02-23T08:45:11;99417.53;;;16.42;50.49
14383;BME280;7275;50.328;8.720;2023-02-23T08:47:39;99421.63;;;16.48;50.72
14383;BME280;7275;50.328;8.720;2023-02-23T08:50:08;99417.72;;;16.53;50.68
14383;BME280;7275;50.328;8.720;2023-02-23T08:52:36;99424.56;;;16.57;50.55
14383;BME280;7275;50.328;8.720;2023-02-23T08:55:06;99425.13;;;16.62;50.79
14383;BME280;7275;50.328;8.720;2023-02-23T08:57:36;99427.41;;;16.68;50.49
14383;BME280;7275;50.328;8.720;2023-02-23T09:00:05;99423.44;;;16.74;50.66
14383;BME280;7275;50.328;8.720;2023-02-23T09:02:39;99432.09;;;16.77;50.28
14383;BME280;7275;50.328;8.720;2023-02-23T09:05:08;99432.78;;;16.81;50.28
14383;BME280;7275;50.328;8.720;2023-02-23T09:07:36;99427.53;;;16.79;50.54
14383;BME280;7275;50.328;8.720;2023-02-23T09:10:07;99423.16;;;16.78;50.37
14383;BME280;7275;50.328;8.720;2023-02-23T09:12:35;99434.03;;;16.75;50.42
14383;BME280;7275;50.328;8.720;2023-02-23T09:15:03;99432.63;;;16.70;50.52
14383;BME280;7275;50.328;8.720;2023-02-23T09:17:31;99435.47;;;16.67;50.71
14383;BME280;7275;50.328;8.720;2023-02-23T09:19:59;99434.72;;;16.65;50.96
14383;BME280;7275;50.328;8.720;2023-02-23T09:22:27;99431.22;;;16.64;51.03
14383;BME280;7275;50.328;8.720;2023-02-23T09:24:55;99431.97;;;16.66;50.92
14383;BME280;7275;50.328;8.720;2023-02-23T09:27:23;99438.91;;;16.69;51.22
14383;BME280;7275;50.328;8.720;2023-02-23T09:29:51;99438.59;;;16.73;51.02
14383;BME280;7275;50.328;8.720;2023-02-23T09:32:19;99438.41;;;16.76;51.00
14383;BME280;7275;50.328;8.720;2023-02-23T09:34:47;99441.72;;;16.80;51.03
14383;BME280;7275;50.328;8.720;2023-02-23T09:37:15;99444.97;;;16.85;51.03
14383;BME280;7275;50.328;8.720;2023-02-23T09:39:42;99449.22;;;16.88;51.23
14383;BME280;7275;50.328;8.720;2023-02-23T09:42:19;99452.66;;;16.90;50.92
14383;BME280;7275;50.328;8.720;2023-02-23T09:45:00;99451.81;;;16.89;51.12
14383;BME280;7275;50.328;8.720;2023-02-23T09:47:33;99453.50;;;16.90;50.84
14383;BME280;7275;50.328;8.720;2023-02-23T09:50:14;99459.50;;;16.94;50.99
14383;BME280;7275;50.328;8.720;2023-02-23T09:52:46;99450.53;;;16.95;50.95
14383;BME280;7275;50.328;8.720;2023-02-23T09:55:15;99459.28;;;16.97;51.02
14383;BME280;7275;50.328;8.720;2023-02-23T09:57:47;99455.56;;;16.99;50.89
14383;BME280;7275;50.328;8.720;2023-02-23T10:00:20;99460.78;;;17.01;50.98
14383;BME280;7275;50.328;8.720;2023-02-23T10:03:02;99458.22;;;16.99;50.98
14383;BME280;7275;50.328;8.720;2023-02-23T10:05:38;99467.00;;;17.01;50.96
14383;BME280;7275;50.328;8.720;2023-02-23T10:08:19;99462.28;;;17.05;51.09
14383;BME280;7275;50.328;8.720;2023-02-23T10:10:50;99463.78;;;17.09;50.81
14383;BME280;7275;50.328;8.720;2023-02-23T10:13:25;99465.22;;;17.14;51.10
14383;BME280;7275;50.328;8.720;2023-02-23T10:16:02;99459.56;;;17.19;50.86
14383;BME280;7275;50.328;8.720;2023-02-23T10:18:36;99461.16;;;17.21;51.02
14383;BME280;7275;50.328;8.720;2023-02-23T10:21:15;99465.00;;;17.30;50.95
14383;BME280;7275;50.328;8.720;2023-02-23T10:23:50;99462.66;;;17.38;51.17
14383;BME280;7275;50.328;8.720;2023-02-23T10:26:22;99459.25;;;17.48;51.07
14383;BME280;7275;50.328;8.720;2023-02-23T10:28:53;99458.66;;;17.58;51.09
14383;BME280;7275;50.328;8.720;2023-02-23T10:31:28;99467.13;;;17.64;50.97
14383;BME280;7275;50.328;8.720;2023-02-23T10:34:03;99465.06;;;17.68;50.74
14383;BME280;7275;50.328;8.720;2023-02-23T10:36:35;99463.03;;;17.71;50.71
14383;BME280;7275;50.328;8.720;2023-02-23T10:39:05;99459.41;;;17.72;50.82
14383;BME280;7275;50.328;8.720;2023-02-23T10:41:35;99461.97;;;17.74;50.76
14383;BME280;7275;50.328;8.720;2023-02-23T10:44:04;99465.06;;;17.80;50.82
14383;BME280;7275;50.328;8.720;2023-02-23T10:46:45;99460.91;;;17.89;50.80
14383;BME280;7275;50.328;8.720;2023-02-23T10:49:18;99452.84;;;18.01;50.75
14383;BME280;7275;50.328;8.720;2023-02-23T10:51:48;99446.28;;;18.18;50.82
14383;BME280;7275;50.328;8.720;2023-02-23T10:54:44;99451.78;;;18.40;50.89
14383;BME280;7275;50.328;8.720;2023-02-23T10:57:20;99456.66;;;18.59;50.66
14383;BME280;7275;50.328;8.720;2023-02-23T11:00:20;99458.75;;;18.79;50.46
14383;BME280;7275;50.328;8.720;2023-02-23T11:02:54;99454.44;;;19.00;50.16
14383;BME280;7275;50.328;8.720;2023-02-23T11:05:31;99453.78;;;19.20;50.01
14383;BME280;7275;50.328;8.720;2023-02-23T11:08:19;99447.66;;;19.53;49.86
14383;BME280;7275;50.328;8.720;2023-02-23T11:10:55;99451.00;;;19.89;49.57
14383;BME280;7275;50.328;8.720;2023-02-23T11:13:25;99448.94;;;20.37;49.57
14383;BME280;7275;50.328;8.720;2023-02-23T11:15:59;99443.88;;;21.29;49.65
14383;BME280;7275;50.328;8.720;2023-02-23T11:18:29;99434.19;;;22.19;48.49
14383;BME280;7275;50.328;8.720;2023-02-23T11:20:56;99428.03;;;22.57;47.68
14383;BME280;7275;50.328;8.720;2023-02-23T11:23:26;99431.63;;;22.67;46.74
14383;BME280;7275;50.328;8.720;2023-02-23T11:25:57;99436.22;;;22.55;45.95
14383;BME280;7275;50.328;8.720;2023-02-23T11:28:29;99433.78;;;22.23;46.04
14383;BME280;7275;50.328;8.720;2023-02-23T11:31:00;99433.06;;;21.91;45.59
14383;BME280;7275;50.328;8.720;2023-02-23T11:33:32;99437.09;;;21.56;46.00
14383;BME280;7275;50.328;8.720;2023-02-23T11:36:16;99434.41;;;21.14;45.99
14383;BME280;7275;50.328;8.720;2023-02-23T11:38:45;99438.59;;;20.76;46.15
14383;BME280;7275;50.328;8.720;2023-02-23T11:41:21;99443.81;;;20.34;46.71
14383;BME280;7275;50.328;8.720;2023-02-23T11:43:49;99446.75;;;19.98;46.94
14383;BME280;7275;50.328;8.720;2023-02-23T11:46:18;99441.25;;;19.66;47.21
14383;BME280;7275;50.328;8.720;2023-02-23T11:48:51;99437.69;;;19.44;47.63
14383;BME280;7275;50.328;8.720;2023-02-23T11:51:26;99438.09;;;19.27;47.91
14383;BME280;7275;50.328;8.720;2023-02-23T11:53:56;99433.34;;;19.19;48.32
14383;BME280;7275;50.328;8.720;2023-02-23T11:56:25;99434.50;;;19.15;48.40
14383;BME280;7275;50.328;8.720;2023-02-23T11:58:56;99434.75;;;19.12;48.40
14383;BME280;7275;50.328;8.720;2023-02-23T12:01:36;99424.63;;;19.04;48.50
14383;BME280;7275;50.328;8.720;2023-02-23T12:04:09;99426.81;;;18.99;48.66
14383;BME280;7275;50.328;8.720;2023-02-23T12:06:49;99417.63;;;18.91;48.68
14383;BME280;7275;50.328;8.720;2023-02-23T12:09:22;99422.59;;;18.84;48.73
14383;BME280;7275;50.328;8.720;2023-02-23T12:11:57;99421.38;;;18.77;48.66
14383;BME280;7275;50.328;8.720;2023-02-23T12:14:30;99422.16;;;18.67;48.84
14383;BME280;7275;50.328;8.720;2023-02-23T12:17:03;99420.91;;;18.60;48.89
14383;BME280;7275;50.328;8.720;2023-02-23T12:19:38;99422.97;;;18.56;48.81
14383;BME280;7275;50.328;8.720;2023-02-23T12:22:10;99418.69;;;18.54;49.07
14383;BME280;7275;50.328;8.720;2023-02-23T12:24:45;99416.97;;;18.53;48.95
14383;BME280;7275;50.328;8.720;2023-02-23T12:27:18;99425.13;;;18.51;49.17
14383;BME280;7275;50.328;8.720;2023-02-23T12:29:58;99419.63;;;18.53;49.10
14383;BME280;7275;50.328;8.720;2023-02-23T12:32:39;99414.19;;;18.54;49.04
14383;BME280;7275;50.328;8.720;2023-02-23T12:35:15;99419.31;;;18.57;49.10
14383;BME280;7275;50.328;8.720;2023-02-23T12:37:47;99423.38;;;18.63;49.16
14383;BME280;7275;50.328;8.720;2023-02-23T12:40:21;99424.94;;;18.65;49.01
14383;BME280;7275;50.328;8.720;2023-02-23T12:42:55;99429.47;;;18.65;49.08
14383;BME280;7275;50.328;8.720;2023-02-23T12:45:31;99423.38;;;18.63;49.19
14383;BME280;7275;50.328;8.720;2023-02-23T12:48:05;99419.69;;;18.64;48.95
14383;BME280;7275;50.328;8.720;2023-02-23T12:50:38;99415.22;;;18.64;48.86
14383;BME280;7275;50.328;8.720;2023-02-23T12:53:17;99416.91;;;18.65;48.67
14383;BME280;7275;50.328;8.720;2023-02-23T12:55:59;99414.22;;;18.65;48.49
14383;BME280;7275;50.328;8.720;2023-02-23T12:58:39;99421.31;;;18.66;48.41
14383;BME280;7275;50.328;8.720;2023-02-23T13:01:15;99417.66;;;18.67;48.44
14383;BME280;7275;50.328;8.720;2023-02-23T13:04:11;99412.19;;;18.69;48.39
14383;BME280;7275;50.328;8.720;2023-02-23T13:06:55;99414.88;;;18.69;48.06
14383;BME280;7275;50.328;8.720;2023-02-23T13:09:34;99411.47;;;18.67;47.94
14383;BME280;7275;50.328;8.720;2023-02-23T13:12:21;99406.94;;;18.67;47.88
14383;BME280;7275;50.328;8.720;2023-02-23T13:14:56;99410.25;;;18.71;47.87
14383;BME280;7275;50.328;8.720;2023-02-23T13:17:32;99408.31;;;18.73;47.91
14383;BME280;7275;50.328;8.720;2023-02-23T13:20:07;99405.38;;;18.76;47.67
14383;BME280;7275;50.328;8.720;2023-02-23T13:22:44;99408.81;;;18.78;47.47
14383;BME280;7275;50.328;8.720;2023-02-23T13:25:21;99408.34;;;18.84;47.57
14383;BME280;7275;50.328;8.720;2023-02-23T13:27:57;99408.50;;;18.93;47.46
14383;BME280;7275;50.328;8.720;2023-02-23T13:30:28;99407.69;;;19.04;47.26
14383;BME280;7275;50.328;8.720;2023-02-23T13:32:58;99401.13;;;19.08;47.10
14383;BME280;7275;50.328;8.720;2023-02-23T13:35:30;99404.53;;;19.10;46.82
14383;BME280;7275;50.328;8.720;2023-02-23T13:38:08;99400.16;;;19.09;46.89
14383;BME280;7275;50.328;8.720;2023-02-23T13:40:41;99402.00;;;19.08;46.91
14383;BME280;7275;50.328;8.720;2023-02-23T13:43:16;99405.75;;;19.06;46.73
14383;BME280;7275;50.328;8.720;2023-02-23T13:46:16;99396.00;;;19.05;46.80